Time,TemperatureF,DewpointF,PressureIn,WindDirection,WindDirectionDegrees,WindSpeedMPH,WindSpeedGustMPH,Humidity,HourlyPrecipIn,Conditions,Clouds,dailyrainin,SoftwareType,DateUTC
2013-04-17 00:02:00,53.0,20.0,29.39,WSW,244,12.0,-999.0,27,-99.99,,,-99.99,,2013-04-17 06:02:00,
2013-04-17 00:12:00,53.0,20.0,29.39,WSW,244,12.0,-999.0,27,-99.99,,,-99.99,,2013-04-17 06:12:00,
2013-04-17 00:22:00,52.0,20.0,29.40,West,266,7.0,-999.0,28,-99.99,,,-99.99,,2013-04-17 06:22:00,
2013-04-17 00:32:00,51.0,20.0,29.41,WSW,256,5.0,-999.0,29,-99.99,,,-99.99,,2013-04-17 06:32:00,
2013-04-17 00:42:00,51.0,20.0,29.41,WSW,256,5.0,-999.0,29,-99.99,,,-99.99,,2013-04-17 06:42:00,
2013-04-17 00:52:00,50.0,20.0,29.41,WSW,256,0.0,-999.0,30,-99.99,,,-99.99,,2013-04-17 06:52:00,
2013-04-17 01:02:00,48.0,20.0,29.40,WSW,256,0.0,-999.0,32,-99.99,,,-99.99,,2013-04-17 07:02:00,
2013-04-17 01:12:00,48.0,20.0,29.40,WSW,256,0.0,-999.0,32,-99.99,,,-99.99,,2013-04-17 07:12:00,
2013-04-17 01:21:00,48.0,20.0,29.41,WSW,256,2.0,-999.0,32,-99.99,,,-99.99,,2013-04-17 07:21:00,
2013-04-17 01:32:00,48.0,21.0,29.40,WSW,256,0.0,-999.0,34,-99.99,,,-99.99,,2013-04-17 07:32:00,
2013-04-17 01:42:00,48.0,21.0,29.40,WSW,256,0.0,-999.0,34,-99.99,,,-99.99,,2013-04-17 07:42:00,
2013-04-17 01:52:00,47.0,20.0,29.40,WSW,254,1.0,-999.0,34,-99.99,,,-99.99,,2013-04-17 07:52:00,
2013-04-17 02:02:00,46.0,20.0,29.40,WSW,254,0.0,-999.0,35,-99.99,,,-99.99,,2013-04-17 08:02:00,
2013-04-17 02:12:00,46.0,20.0,29.40,WSW,254,0.0,-999.0,35,-99.99,,,-99.99,,2013-04-17 08:12:00,
2013-04-17 02:22:00,46.0,21.0,29.40,WSW,254,0.0,-999.0,37,-99.99,,,-99.99,,2013-04-17 08:22:00,
2013-04-17 02:32:00,46.0,21.0,29.40,WSW,254,0.0,-999.0,37,-99.99,,,-99.99,,2013-04-17 08:32:00,
2013-04-17 02:42:00,46.0,21.0,29.40,WSW,254,0.0,-999.0,37,-99.99,,,-99.99,,2013-04-17 08:42:00,
2013-04-17 02:52:00,45.0,21.0,29.39,WSW,254,0.0,-999.0,38,-99.99,,,-99.99,,2013-04-17 08:52:00,
2013-04-17 03:02:00,45.0,22.0,29.39,WSW,254,0.0,-999.0,39,-99.99,,,-99.99,,2013-04-17 09:02:00,
2013-04-17 03:12:00,45.0,22.0,29.39,WSW,254,0.0,-999.0,39,-99.99,,,-99.99,,2013-04-17 09:12:00,
2013-04-17 03:22:00,45.0,22.0,29.39,WSW,254,0.0,-999.0,39,-99.99,,,-99.99,,2013-04-17 09:22:00,
2013-04-17 03:32:00,44.0,21.0,29.39,WSW,254,0.0,-999.0,40,-99.99,,,-99.99,,2013-04-17 09:32:00,
2013-04-17 03:42:00,44.0,21.0,29.39,WSW,254,0.0,-999.0,40,-99.99,,,-99.99,,2013-04-17 09:42:00,
2013-04-17 03:52:00,44.0,21.0,29.38,WSW,254,1.0,-999.0,40,-99.99,,,-99.99,,2013-04-17 09:52:00,
2013-04-17 04:02:00,43.0,22.0,29.38,WSW,254,0.0,-999.0,42,-99.99,,,-99.99,,2013-04-17 10:02:00,
2013-04-17 04:12:00,43.0,22.0,29.38,WSW,254,0.0,-999.0,42,-99.99,,,-99.99,,2013-04-17 10:12:00,
2013-04-17 04:22:00,43.0,22.0,29.39,WSW,254,0.0,-999.0,43,-99.99,,,-99.99,,2013-04-17 10:22:00,
2013-04-17 04:32:00,42.0,21.0,29.39,WSW,254,0.0,-999.0,43,-99.99,,,-99.99,,2013-04-17 10:32:00,
2013-04-17 04:42:00,42.0,21.0,29.39,WSW,254,0.0,-999.0,43,-99.99,,,-99.99,,2013-04-17 10:42:00,
2013-04-17 04:52:00,42.0,22.0,29.39,WSW,254,2.0,-999.0,45,-99.99,,,-99.99,,2013-04-17 10:52:00,
2013-04-17 05:02:00,41.0,21.0,29.41,WSW,254,1.0,-999.0,44,-99.99,,,-99.99,,2013-04-17 11:02:00,
2013-04-17 05:11:00,41.0,21.0,29.41,WSW,254,1.0,-999.0,44,-99.99,,,-99.99,,2013-04-17 11:11:00,
2013-04-17 05:22:00,41.0,22.0,29.41,WSW,254,0.0,-999.0,46,-99.99,,,-99.99,,2013-04-17 11:22:00,
2013-04-17 05:32:00,41.0,22.0,29.42,WSW,254,0.0,-999.0,46,-99.99,,,-99.99,,2013-04-17 11:32:00,
2013-04-17 05:42:00,41.0,22.0,29.42,WSW,254,0.0,-999.0,46,-99.99,,,-99.99,,2013-04-17 11:42:00,
2013-04-17 05:52:00,41.0,21.0,29.42,West,259,1.0,-999.0,45,-99.99,,,-99.99,,2013-04-17 11:52:00,
2013-04-17 06:02:00,43.0,22.0,29.42,WSW,257,4.0,-999.0,43,-99.99,,,-99.99,,2013-04-17 12:02:00,
2013-04-17 06:12:00,43.0,22.0,29.42,WSW,257,4.0,-999.0,43,-99.99,,,-99.99,,2013-04-17 12:12:00,
2013-04-17 06:22:00,44.0,22.0,29.41,SW,235,5.0,-999.0,41,-99.99,,,-99.99,,2013-04-17 12:22:00,
2013-04-17 06:32:00,43.0,22.0,29.41,SW,235,2.0,-999.0,42,-99.99,,,-99.99,,2013-04-17 12:32:00,
2013-04-17 06:42:00,43.0,22.0,29.41,SW,235,2.0,-999.0,42,-99.99,,,-99.99,,2013-04-17 12:42:00,
2013-04-17 06:52:00,42.0,21.0,29.42,SW,236,2.0,-999.0,43,-99.99,,,-99.99,,2013-04-17 12:52:00,
2013-04-17 07:02:00,41.0,21.0,29.45,WSW,243,3.0,-999.0,45,-99.99,,,-99.99,,2013-04-17 13:02:00,
2013-04-17 07:12:00,41.0,21.0,29.45,WSW,243,3.0,-999.0,45,-99.99,,,-99.99,,2013-04-17 13:12:00,
2013-04-17 07:22:00,40.0,22.0,29.47,WSW,243,0.0,-999.0,48,-99.99,,,-99.99,,2013-04-17 13:22:00,
2013-04-17 07:32:00,40.0,23.0,29.47,WSW,243,1.0,-999.0,51,-99.99,,,-99.99,,2013-04-17 13:32:00,
2013-04-17 07:42:00,40.0,23.0,29.47,WSW,243,1.0,-999.0,51,-99.99,,,-99.99,,2013-04-17 13:42:00,
2013-04-17 07:52:00,41.0,24.0,29.47,WSW,238,1.0,-999.0,50,-99.99,,,-99.99,,2013-04-17 13:52:00,
2013-04-17 08:02:00,42.0,25.0,29.49,WSW,238,1.0,-999.0,50,-99.99,,,-99.99,,2013-04-17 14:02:00,
2013-04-17 08:12:00,42.0,25.0,29.49,WSW,238,1.0,-999.0,50,-99.99,,,-99.99,,2013-04-17 14:12:00,
2013-04-17 08:22:00,42.0,24.0,29.49,WSW,238,2.0,-999.0,49,-99.99,,,-99.99,,2013-04-17 14:22:00,
2013-04-17 08:32:00,43.0,24.0,29.49,SW,236,3.0,-999.0,47,-99.99,,,-99.99,,2013-04-17 14:32:00,
2013-04-17 08:42:00,43.0,23.0,29.49,South,187,4.0,-999.0,45,-99.99,,,-99.99,,2013-04-17 14:42:00,
2013-04-17 08:52:00,43.0,23.0,29.49,South,187,4.0,-999.0,45,-99.99,,,-99.99,,2013-04-17 14:52:00,
2013-04-17 09:02:00,43.0,23.0,29.49,South,187,4.0,-999.0,45,-99.99,,,-99.99,,2013-04-17 15:02:00,
2013-04-17 09:12:00,45.0,22.0,29.49,South,172,7.0,-999.0,39,-99.99,,,-99.99,,2013-04-17 15:12:00,
2013-04-17 09:22:00,45.0,22.0,29.49,South,172,7.0,-999.0,39,-99.99,,,-99.99,,2013-04-17 15:22:00,
2013-04-17 09:33:00,45.0,20.0,29.49,SSW,200,9.0,-999.0,36,-99.99,,,-99.99,,2013-04-17 15:33:00,
2013-04-17 09:42:00,45.0,20.0,29.49,SSW,200,9.0,-999.0,36,-99.99,,,-99.99,,2013-04-17 15:42:00,
2013-04-17 09:52:00,45.0,18.0,29.49,SSW,205,9.0,-999.0,34,-99.99,,,-99.99,,2013-04-17 15:52:00,
2013-04-17 10:03:00,45.0,18.0,29.49,SSW,205,9.0,-999.0,34,-99.99,,,-99.99,,2013-04-17 16:03:00,
2013-04-17 10:12:00,45.0,18.0,29.49,SSW,205,9.0,-999.0,34,-99.99,,,-99.99,,2013-04-17 16:12:00,
2013-04-17 10:22:00,45.0,18.0,29.49,West,268,11.0,-999.0,33,-99.99,,,-99.99,,2013-04-17 16:22:00,
2013-04-17 10:32:00,44.0,22.0,29.50,WSW,250,12.0,-999.0,41,-99.99,,,-99.99,,2013-04-17 16:32:00,
2013-04-17 10:42:00,44.0,22.0,29.50,WSW,250,12.0,-999.0,41,-99.99,,,-99.99,,2013-04-17 16:42:00,
2013-04-17 10:52:00,44.0,21.0,29.50,SW,234,11.0,-999.0,40,-99.99,,,-99.99,,2013-04-17 16:52:00,
2013-04-17 11:02:00,44.0,21.0,29.51,WSW,245,12.0,-999.0,39,-99.99,,,-99.99,,2013-04-17 17:02:00,
2013-04-17 11:12:00,44.0,21.0,29.51,WSW,245,12.0,-999.0,39,-99.99,,,-99.99,,2013-04-17 17:12:00,
2013-04-17 11:22:00,44.0,21.0,29.51,WSW,245,12.0,-999.0,39,-99.99,,,-99.99,,2013-04-17 17:22:00,
2013-04-17 11:32:00,40.0,27.0,29.56,WNW,283,9.0,-999.0,59,-99.99,,,-99.99,,2013-04-17 17:32:00,
2013-04-17 11:42:00,40.0,27.0,29.56,WNW,283,9.0,-999.0,59,-99.99,,,-99.99,,2013-04-17 17:42:00,
2013-04-17 11:52:00,41.0,27.0,29.56,WNW,285,8.0,-999.0,58,-99.99,,,-99.99,,2013-04-17 17:52:00,
2013-04-17 12:02:00,42.0,23.0,29.56,West,271,9.0,-999.0,47,-99.99,,,-99.99,,2013-04-17 18:02:00,
2013-04-17 12:12:00,42.0,23.0,29.56,West,271,9.0,-999.0,47,-99.99,,,-99.99,,2013-04-17 18:12:00,
2013-04-17 12:22:00,42.0,26.0,29.57,NW,307,16.0,-999.0,52,-99.99,,,-99.99,,2013-04-17 18:22:00,
2013-04-17 12:32:00,42.0,26.0,29.57,NW,307,16.0,-999.0,52,-99.99,,,-99.99,,2013-04-17 18:32:00,
2013-04-17 12:42:00,42.0,26.0,29.57,NW,307,16.0,-999.0,52,-99.99,,,-99.99,,2013-04-17 18:42:00,
2013-04-17 12:52:00,45.0,21.0,29.55,WSW,247,16.0,-999.0,38,-99.99,,,-99.99,,2013-04-17 18:52:00,
2013-04-17 13:02:00,46.0,19.0,29.56,West,262,17.0,-999.0,34,-99.99,,,-99.99,,2013-04-17 19:02:00,
2013-04-17 13:12:00,46.0,19.0,29.56,West,262,17.0,-999.0,34,-99.99,,,-99.99,,2013-04-17 19:12:00,
2013-04-17 13:21:00,46.0,19.0,29.56,West,262,17.0,-999.0,34,-99.99,,,-99.99,,2013-04-17 19:21:00,
2013-04-17 13:32:00,45.0,18.0,29.57,West,262,17.0,-999.0,33,-99.99,,,-99.99,,2013-04-17 19:32:00,
2013-04-17 13:42:00,45.0,18.0,29.57,West,262,17.0,-999.0,33,-99.99,,,-99.99,,2013-04-17 19:42:00,
2013-04-17 13:52:00,46.0,18.0,29.57,WSW,250,16.0,-999.0,32,-99.99,,,-99.99,,2013-04-17 19:52:00,
2013-04-17 14:02:00,46.0,19.0,29.57,SW,230,17.0,-999.0,33,-99.99,,,-99.99,,2013-04-17 20:02:00,
2013-04-17 14:12:00,46.0,19.0,29.57,SW,230,17.0,-999.0,33,-99.99,,,-99.99,,2013-04-17 20:12:00,
2013-04-17 14:22:00,48.0,16.0,29.58,WSW,255,15.0,-999.0,27,-99.99,,,-99.99,,2013-04-17 20:22:00,
2013-04-17 14:32:00,47.0,14.0,29.57,West,264,15.0,-999.0,26,-99.99,,,-99.99,,2013-04-17 20:32:00,
2013-04-17 14:42:00,47.0,14.0,29.57,West,264,15.0,-999.0,26,-99.99,,,-99.99,,2013-04-17 20:42:00,
2013-04-17 14:52:00,47.0,12.0,29.58,West,281,16.0,-999.0,24,-99.99,,,-99.99,,2013-04-17 20:52:00,
2013-04-17 15:02:00,47.0,15.0,29.58,West,261,16.0,-999.0,27,-99.99,,,-99.99,,2013-04-17 21:02:00,
2013-04-17 15:11:00,47.0,15.0,29.58,West,261,16.0,-999.0,27,-99.99,,,-99.99,,2013-04-17 21:11:00,
2013-04-17 15:22:00,47.0,16.0,29.58,West,274,16.0,-999.0,28,-99.99,,,-99.99,,2013-04-17 21:22:00,
2013-04-17 15:32:00,47.0,15.0,29.58,WNW,285,15.0,-999.0,27,-99.99,,,-99.99,,2013-04-17 21:32:00,
2013-04-17 15:42:00,47.0,15.0,29.58,WNW,285,15.0,-999.0,27,-99.99,,,-99.99,,2013-04-17 21:42:00,
2013-04-17 15:53:00,46.0,13.0,29.58,West,276,14.0,-999.0,26,-99.99,,,-99.99,,2013-04-17 21:53:00,
2013-04-17 16:02:00,48.0,17.0,29.59,WNW,282,12.0,-999.0,29,-99.99,,,-99.99,,2013-04-17 22:02:00,
2013-04-17 16:12:00,48.0,17.0,29.59,WNW,282,12.0,-999.0,29,-99.99,,,-99.99,,2013-04-17 22:12:00,
2013-04-17 16:22:00,46.0,11.0,29.58,WNW,295,16.0,-999.0,24,-99.99,,,-99.99,,2013-04-17 22:22:00,
2013-04-17 16:33:00,45.0,15.0,29.60,West,281,11.0,-999.0,30,-99.99,,,-99.99,,2013-04-17 22:33:00,
2013-04-17 16:42:00,45.0,15.0,29.60,West,281,11.0,-999.0,30,-99.99,,,-99.99,,2013-04-17 22:42:00,
2013-04-17 16:52:00,45.0,13.0,29.62,West,269,12.0,-999.0,27,-99.99,,,-99.99,,2013-04-17 22:52:00,
2013-04-17 17:02:00,44.0,12.0,29.64,West,281,14.0,-999.0,27,-99.99,,,-99.99,,2013-04-17 23:02:00,
2013-04-17 17:12:00,43.0,13.0,29.65,WNW,292,13.0,-999.0,29,-99.99,,,-99.99,,2013-04-17 23:12:00,
2013-04-17 17:22:00,43.0,13.0,29.65,WNW,292,13.0,-999.0,29,-99.99,,,-99.99,,2013-04-17 23:22:00,
2013-04-17 17:32:00,44.0,13.0,29.65,WNW,300,12.0,-999.0,28,-99.99,,,-99.99,,2013-04-17 23:32:00,
2013-04-17 17:42:00,44.0,13.0,29.64,WNW,282,12.0,-999.0,28,-99.99,,,-99.99,,2013-04-17 23:42:00,
2013-04-17 17:52:00,44.0,13.0,29.64,WNW,282,12.0,-999.0,28,-99.99,,,-99.99,,2013-04-17 23:52:00,
2013-04-17 18:02:00,43.0,11.0,29.64,West,260,14.0,-999.0,27,-99.99,,,-99.99,,2013-04-18 00:02:00,
2013-04-17 18:12:00,43.0,11.0,29.64,West,260,14.0,-999.0,27,-99.99,,,-99.99,,2013-04-18 00:12:00,
2013-04-17 18:22:00,44.0,13.0,29.66,WNW,292,15.0,-999.0,28,-99.99,,,-99.99,,2013-04-18 00:22:00,
2013-04-17 18:32:00,43.0,14.0,29.66,WNW,300,14.0,-999.0,30,-99.99,,,-99.99,,2013-04-18 00:32:00,
2013-04-17 18:42:00,42.0,15.0,29.67,WNW,282,15.0,-999.0,33,-99.99,,,-99.99,,2013-04-18 00:42:00,
2013-04-17 18:52:00,42.0,15.0,29.67,WNW,282,15.0,-999.0,33,-99.99,,,-99.99,,2013-04-18 00:52:00,
2013-04-17 19:02:00,40.0,15.0,29.70,WNW,300,14.0,-999.0,36,-99.99,,,-99.99,,2013-04-18 01:02:00,
2013-04-17 19:11:00,40.0,16.0,29.71,WNW,283,12.0,-999.0,38,-99.99,,,-99.99,,2013-04-18 01:11:00,
2013-04-17 19:22:00,40.0,16.0,29.71,WNW,283,12.0,-999.0,38,-99.99,,,-99.99,,2013-04-18 01:22:00,
2013-04-17 19:32:00,39.0,16.0,29.73,WNW,296,13.0,-999.0,39,-99.99,,,-99.99,,2013-04-18 01:32:00,
2013-04-17 19:42:00,38.0,15.0,29.74,West,270,12.0,-999.0,39,-99.99,,,-99.99,,2013-04-18 01:42:00,
2013-04-17 19:52:00,38.0,15.0,29.74,West,270,12.0,-999.0,39,-99.99,,,-99.99,,2013-04-18 01:52:00,
2013-04-17 20:02:00,37.0,14.0,29.73,WNW,284,12.0,-999.0,39,-99.99,,,-99.99,,2013-04-18 02:02:00,
2013-04-17 20:12:00,37.0,16.0,29.74,WNW,289,11.0,-999.0,41,-99.99,,,-99.99,,2013-04-18 02:12:00,
2013-04-17 20:22:00,37.0,16.0,29.74,WNW,289,11.0,-999.0,41,-99.99,,,-99.99,,2013-04-18 02:22:00,
2013-04-17 20:32:00,36.0,15.0,29.77,WNW,295,9.0,-999.0,41,-99.99,,,-99.99,,2013-04-18 02:32:00,
2013-04-17 20:42:00,36.0,15.0,29.77,WNW,295,9.0,-999.0,41,-99.99,,,-99.99,,2013-04-18 02:42:00,
2013-04-17 20:51:00,36.0,15.0,29.77,WNW,295,9.0,-999.0,41,-99.99,,,-99.99,,2013-04-18 02:51:00,
2013-04-17 21:02:00,35.0,17.0,29.78,NW,304,8.0,-999.0,47,-99.99,,,-99.99,,2013-04-18 03:02:00,
2013-04-17 21:12:00,35.0,16.0,29.78,NW,325,8.0,-999.0,46,-99.99,,,-99.99,,2013-04-18 03:12:00,
2013-04-17 21:22:00,35.0,16.0,29.78,NW,325,8.0,-999.0,46,-99.99,,,-99.99,,2013-04-18 03:22:00,
2013-04-17 21:33:00,34.0,14.0,29.79,West,277,8.0,-999.0,44,-99.99,,,-99.99,,2013-04-18 03:33:00,
2013-04-17 21:43:00,34.0,14.0,29.80,West,278,8.0,-999.0,43,-99.99,,,-99.99,,2013-04-18 03:43:00,
2013-04-17 21:53:00,34.0,14.0,29.80,West,278,8.0,-999.0,43,-99.99,,,-99.99,,2013-04-18 03:53:00,
2013-04-17 22:03:00,34.0,14.0,29.83,WNW,297,7.0,-999.0,44,-99.99,,,-99.99,,2013-04-18 04:03:00,
2013-04-17 22:13:00,34.0,14.0,29.83,WNW,297,7.0,-999.0,44,-99.99,,,-99.99,,2013-04-18 04:13:00,
2013-04-17 22:23:00,33.0,13.0,29.84,West,273,7.0,-999.0,43,-99.99,,,-99.99,,2013-04-18 04:23:00,
2013-04-17 22:33:00,33.0,13.0,29.84,West,261,7.0,-999.0,43,-99.99,,,-99.99,,2013-04-18 04:33:00,
2013-04-17 22:43:00,32.0,13.0,29.85,West,263,7.0,-999.0,44,-99.99,,,-99.99,,2013-04-18 04:43:00,
2013-04-17 22:52:00,32.0,13.0,29.85,West,263,7.0,-999.0,44,-99.99,,,-99.99,,2013-04-18 04:52:00,
2013-04-17 23:02:00,32.0,13.0,29.88,West,260,4.0,-999.0,45,-99.99,,,-99.99,,2013-04-18 05:02:00,
2013-04-17 23:12:00,31.0,13.0,29.89,WSW,245,4.0,-999.0,46,-99.99,,,-99.99,,2013-04-18 05:12:00,
2013-04-17 23:22:00,31.0,13.0,29.89,WSW,245,4.0,-999.0,46,-99.99,,,-99.99,,2013-04-18 05:22:00,
2013-04-17 23:32:00,31.0,12.0,29.89,SW,232,5.0,-999.0,44,-99.99,,,-99.99,,2013-04-18 05:32:00,
2013-04-17 23:42:00,31.0,12.0,29.89,WSW,245,1.0,-999.0,44,-99.99,,,-99.99,,2013-04-18 05:42:00,
2013-04-17 23:52:00,31.0,12.0,29.89,WSW,245,1.0,-999.0,44,-99.99,,,-99.99,,2013-04-18 05:52:00,